sensor_id;sensor_type;location;lat;lon;timestamp;P1;durP1;ratioP1;P2;durP2;ratioP2
19191;SDS011;9728;48.194;16.346;2022-07-29T00:04:44;2.10;;;1.90;;
19191;SDS011;9728;48.194;16.346;2022-07-29T00:09:48;3.10;;;2.13;;
19191;SDS011;9728;48.194;16.346;2022-07-29T00:14:54;2.33;;;1.60;;
19191;SDS011;9728;48.194;16.346;2022-07-29T00:19:58;2.35;;;2.13;;
19191;SDS011;9728;48.194;16.346;2022-07-29T00:25:02;2.63;;;2.20;;
19191;SDS011;9728;48.194;16.346;2022-07-29T00:30:07;2.22;;;2.03;;
19191;SDS011;9728;48.194;16.346;2022-07-29T00:35:11;2.78;;;1.85;;
19191;SDS011;9728;48.194;16.346;2022-07-29T00:40:33;2.88;;;1.85;;
19191;SDS011;9728;48.194;16.346;2022-07-29T00:45:41;2.58;;;1.77;;
19191;SDS011;9728;48.194;16.346;2022-07-29T00:50:45;2.78;;;1.85;;
19191;SDS011;9728;48.194;16.346;2022-07-29T00:55:48;3.20;;;1.80;;
19191;SDS011;9728;48.194;16.346;2022-07-29T01:00:54;1.80;;;1.70;;
19191;SDS011;9728;48.194;16.346;2022-07-29T01:05:58;2.75;;;1.98;;
19191;SDS011;9728;48.194;16.346;2022-07-29T01:11:02;2.85;;;1.90;;
19191;SDS011;9728;48.194;16.346;2022-07-29T01:16:09;2.10;;;1.90;;
19191;SDS011;9728;48.194;16.346;2022-07-29T01:21:27;2.05;;;1.80;;
19191;SDS011;9728;48.194;16.346;2022-07-29T01:26:58;2.05;;;1.90;;
19191;SDS011;9728;48.194;16.346;2022-07-29T01:32:10;2.00;;;1.90;;
19191;SDS011;9728;48.194;16.346;2022-07-29T01:37:29;2.80;;;1.98;;
19191;SDS011;9728;48.194;16.346;2022-07-29T01:42:42;2.05;;;1.80;;
19191;SDS011;9728;48.194;16.346;2022-07-29T01:47:49;3.45;;;1.90;;
19191;SDS011;9728;48.194;16.346;2022-07-29T01:53:00;1.98;;;1.80;;
19191;SDS011;9728;48.194;16.346;2022-07-29T01:58:06;2.88;;;2.00;;
19191;SDS011;9728;48.194;16.346;2022-07-29T02:03:12;2.88;;;2.05;;
19191;SDS011;9728;48.194;16.346;2022-07-29T02:08:18;2.50;;;1.80;;
19191;SDS011;9728;48.194;16.346;2022-07-29T02:13:22;1.80;;;1.70;;
19191;SDS011;9728;48.194;16.346;2022-07-29T02:18:29;3.83;;;2.28;;
19191;SDS011;9728;48.194;16.346;2022-07-29T02:23:34;3.03;;;1.92;;
19191;SDS011;9728;48.194;16.346;2022-07-29T02:28:52;1.95;;;1.85;;
19191;SDS011;9728;48.194;16.346;2022-07-29T02:34:00;2.30;;;2.10;;
19191;SDS011;9728;48.194;16.346;2022-07-29T02:39:05;1.98;;;1.77;;
19191;SDS011;9728;48.194;16.346;2022-07-29T02:44:13;2.90;;;2.05;;
19191;SDS011;9728;48.194;16.346;2022-07-29T02:49:29;2.25;;;2.05;;
19191;SDS011;9728;48.194;16.346;2022-07-29T02:54:38;1.80;;;1.70;;
19191;SDS011;9728;48.194;16.346;2022-07-29T02:59:54;1.98;;;1.88;;
19191;SDS011;9728;48.194;16.346;2022-07-29T03:05:02;2.30;;;2.10;;
19191;SDS011;9728;48.194;16.346;2022-07-29T03:10:09;2.22;;;1.98;;
19191;SDS011;9728;48.194;16.346;2022-07-29T03:15:14;3.05;;;2.10;;
19191;SDS011;9728;48.194;16.346;2022-07-29T03:20:19;2.47;;;1.92;;
19191;SDS011;9728;48.194;16.346;2022-07-29T03:25:23;2.70;;;2.10;;
19191;SDS011;9728;48.194;16.346;2022-07-29T03:30:28;2.25;;;1.92;;
19191;SDS011;9728;48.194;16.346;2022-07-29T03:35:33;2.30;;;2.10;;
19191;SDS011;9728;48.194;16.346;2022-07-29T03:40:37;2.50;;;2.03;;
19191;SDS011;9728;48.194;16.346;2022-07-29T03:45:47;2.05;;;1.95;;
19191;SDS011;9728;48.194;16.346;2022-07-29T03:50:53;2.55;;;1.95;;
19191;SDS011;9728;48.194;16.346;2022-07-29T03:55:58;3.33;;;2.05;;
19191;SDS011;9728;48.194;16.346;2022-07-29T04:01:04;2.38;;;2.17;;
19191;SDS011;9728;48.194;16.346;2022-07-29T04:06:09;2.40;;;2.20;;
19191;SDS011;9728;48.194;16.346;2022-07-29T04:11:12;2.45;;;2.05;;
19191;SDS011;9728;48.194;16.346;2022-07-29T04:16:16;2.50;;;2.25;;
19191;SDS011;9728;48.194;16.346;2022-07-29T04:21:21;3.25;;;2.08;;
19191;SDS011;9728;48.194;16.346;2022-07-29T04:26:24;2.38;;;2.17;;
19191;SDS011;9728;48.194;16.346;2022-07-29T04:31:28;5.32;;;2.22;;
19191;SDS011;9728;48.194;16.346;2022-07-29T04:36:32;2.53;;;2.00;;
19191;SDS011;9728;48.194;16.346;2022-07-29T04:41:36;2.85;;;2.05;;
19191;SDS011;9728;48.194;16.346;2022-07-29T04:46:39;2.45;;;2.13;;
19191;SDS011;9728;48.194;16.346;2022-07-29T04:51:44;2.45;;;2.25;;
19191;SDS011;9728;48.194;16.346;2022-07-29T04:56:48;2.30;;;2.10;;
19191;SDS011;9728;48.194;16.346;2022-07-29T05:01:51;3.17;;;2.08;;
19191;SDS011;9728;48.194;16.346;2022-07-29T05:06:56;2.28;;;1.90;;
19191;SDS011;9728;48.194;16.346;2022-07-29T05:11:59;2.10;;;1.90;;
19191;SDS011;9728;48.194;16.346;2022-07-29T05:17:03;5.65;;;2.90;;
19191;SDS011;9728;48.194;16.346;2022-07-29T05:22:08;2.88;;;2.60;;
19191;SDS011;9728;48.194;16.346;2022-07-29T05:27:11;2.55;;;1.98;;
19191;SDS011;9728;48.194;16.346;2022-07-29T05:32:15;2.50;;;2.13;;
19191;SDS011;9728;48.194;16.346;2022-07-29T05:37:20;2.10;;;1.90;;
19191;SDS011;9728;48.194;16.346;2022-07-29T05:42:23;3.33;;;2.38;;
19191;SDS011;9728;48.194;16.346;2022-07-29T05:47:27;2.80;;;2.30;;
19191;SDS011;9728;48.194;16.346;2022-07-29T05:52:31;2.10;;;1.90;;
19191;SDS011;9728;48.194;16.346;2022-07-29T05:57:35;3.50;;;2.17;;
19191;SDS011;9728;48.194;16.346;2022-07-29T06:02:38;3.13;;;2.40;;
19191;SDS011;9728;48.194;16.346;2022-07-29T06:07:43;2.55;;;2.15;;
19191;SDS011;9728;48.194;16.346;2022-07-29T06:12:51;2.33;;;2.13;;
19191;SDS011;9728;48.194;16.346;2022-07-29T06:17:55;2.38;;;2.00;;
19191;SDS011;9728;48.194;16.346;2022-07-29T06:23:03;2.92;;;2.35;;
19191;SDS011;9728;48.194;16.346;2022-07-29T06:28:06;3.10;;;2.42;;
19191;SDS011;9728;48.194;16.346;2022-07-29T06:33:14;4.00;;;2.50;;
19191;SDS011;9728;48.194;16.346;2022-07-29T06:38:20;2.72;;;2.30;;
19191;SDS011;9728;48.194;16.346;2022-07-29T06:43:35;3.40;;;2.38;;
19191;SDS011;9728;48.194;16.346;2022-07-29T06:48:51;2.53;;;2.33;;
19191;SDS011;9728;48.194;16.346;2022-07-29T06:53:56;3.13;;;2.30;;
19191;SDS011;9728;48.194;16.346;2022-07-29T06:59:03;2.90;;;2.17;;
19191;SDS011;9728;48.194;16.346;2022-07-29T07:04:07;2.45;;;2.25;;
19191;SDS011;9728;48.194;16.346;2022-07-29T07:09:12;3.38;;;2.25;;
19191;SDS011;9728;48.194;16.346;2022-07-29T07:14:15;2.60;;;2.15;;
19191;SDS011;9728;48.194;16.346;2022-07-29T07:19:19;2.50;;;2.05;;
19191;SDS011;9728;48.194;16.346;2022-07-29T07:24:24;2.92;;;2.15;;
19191;SDS011;9728;48.194;16.346;2022-07-29T07:29:28;3.67;;;2.40;;
19191;SDS011;9728;48.194;16.346;2022-07-29T07:34:31;4.13;;;1.90;;
19191;SDS011;9728;48.194;16.346;2022-07-29T07:39:36;2.83;;;2.50;;
19191;SDS011;9728;48.194;16.346;2022-07-29T07:44:39;2.60;;;2.28;;
19191;SDS011;9728;48.194;16.346;2022-07-29T07:50:03;2.40;;;2.20;;
19191;SDS011;9728;48.194;16.346;2022-07-29T07:55:09;2.25;;;1.95;;
19191;SDS011;9728;48.194;16.346;2022-07-29T08:00:13;3.17;;;2.42;;
19191;SDS011;9728;48.194;16.346;2022-07-29T08:05:18;2.83;;;2.28;;
19191;SDS011;9728;48.194;16.346;2022-07-29T08:10:23;3.83;;;2.40;;
19191;SDS011;9728;48.194;16.346;2022-07-29T08:15:44;2.97;;;2.42;;
19191;SDS011;9728;48.194;16.346;2022-07-29T08:20:48;2.70;;;2.50;;
19191;SDS011;9728;48.194;16.346;2022-07-29T08:25:52;2.78;;;2.10;;
19191;SDS011;9728;48.194;16.346;2022-07-29T08:30:56;2.60;;;2.38;;
19191;SDS011;9728;48.194;16.346;2022-07-29T08:35:59;2.92;;;2.33;;
19191;SDS011;9728;48.194;16.346;2022-07-29T08:41:04;4.28;;;2.42;;
19191;SDS011;9728;48.194;16.346;2022-07-29T08:46:08;3.22;;;2.50;;
19191;SDS011;9728;48.194;16.346;2022-07-29T08:51:12;2.33;;;2.13;;
19191;SDS011;9728;48.194;16.346;2022-07-29T08:56:18;2.33;;;2.10;;
19191;SDS011;9728;48.194;16.346;2022-07-29T09:01:25;2.88;;;2.15;;
19191;SDS011;9728;48.194;16.346;2022-07-29T09:06:43;2.40;;;2.20;;
19191;SDS011;9728;48.194;16.346;2022-07-29T09:11:50;2.28;;;2.08;;
19191;SDS011;9728;48.194;16.346;2022-07-29T09:16:55;2.00;;;1.85;;
19191;SDS011;9728;48.194;16.346;2022-07-29T09:21:59;3.03;;;2.17;;
19191;SDS011;9728;48.194;16.346;2022-07-29T09:27:09;2.33;;;2.08;;
19191;SDS011;9728;48.194;16.346;2022-07-29T09:32:13;2.53;;;2.33;;
19191;SDS011;9728;48.194;16.346;2022-07-29T09:37:25;2.22;;;2.03;;
19191;SDS011;9728;48.194;16.346;2022-07-29T09:42:31;2.58;;;1.77;;
19191;SDS011;9728;48.194;16.346;2022-07-29T09:47:42;2.58;;;2.10;;
19191;SDS011;9728;48.194;16.346;2022-07-29T09:52:51;2.50;;;2.30;;
19191;SDS011;9728;48.194;16.346;2022-07-29T09:57:56;2.45;;;2.20;;
19191;SDS011;9728;48.194;16.346;2022-07-29T10:03:18;1.88;;;1.77;;
19191;SDS011;9728;48.194;16.346;2022-07-29T10:08:24;2.78;;;2.00;;
19191;SDS011;9728;48.194;16.346;2022-07-29T10:13:29;2.50;;;2.30;;
19191;SDS011;9728;48.194;16.346;2022-07-29T10:18:33;2.33;;;2.05;;
19191;SDS011;9728;48.194;16.346;2022-07-29T10:23:36;2.47;;;2.28;;
19191;SDS011;9728;48.194;16.346;2022-07-29T10:28:49;3.03;;;2.50;;
19191;SDS011;9728;48.194;16.346;2022-07-29T10:33:54;2.33;;;2.13;;
19191;SDS011;9728;48.194;16.346;2022-07-29T10:39:10;2.10;;;1.90;;
19191;SDS011;9728;48.194;16.346;2022-07-29T10:44:24;2.30;;;2.10;;
19191;SDS011;9728;48.194;16.346;2022-07-29T10:49:29;2.10;;;1.95;;
19191;SDS011;9728;48.194;16.346;2022-07-29T10:54:36;2.40;;;2.20;;
19191;SDS011;9728;48.194;16.346;2022-07-29T11:05:29;3.38;;;1.90;;
19191;SDS011;9728;48.194;16.346;2022-07-29T11:10:41;2.85;;;2.55;;
19191;SDS011;9728;48.194;16.346;2022-07-29T11:15:54;2.63;;;2.42;;
19191;SDS011;9728;48.194;16.346;2022-07-29T11:21:00;2.60;;;2.05;;
19191;SDS011;9728;48.194;16.346;2022-07-29T11:26:16;2.85;;;2.38;;
19191;SDS011;9728;48.194;16.346;2022-07-29T11:31:34;2.47;;;2.25;;
19191;SDS011;9728;48.194;16.346;2022-07-29T11:36:52;2.45;;;2.17;;
19191;SDS011;9728;48.194;16.346;2022-07-29T11:42:39;2.28;;;2.08;;
19191;SDS011;9728;48.194;16.346;2022-07-29T11:47:49;2.30;;;2.10;;
19191;SDS011;9728;48.194;16.346;2022-07-29T11:52:57;2.42;;;2.00;;
19191;SDS011;9728;48.194;16.346;2022-07-29T11:58:09;2.30;;;2.10;;
19191;SDS011;9728;48.194;16.346;2022-07-29T12:03:24;2.30;;;2.10;;
19191;SDS011;9728;48.194;16.346;2022-07-29T12:08:40;2.53;;;2.33;;
19191;SDS011;9728;48.194;16.346;2022-07-29T12:13:45;2.58;;;2.38;;
19191;SDS011;9728;48.194;16.346;2022-07-29T12:18:57;2.35;;;2.15;;
19191;SDS011;9728;48.194;16.346;2022-07-29T12:24:05;2.65;;;2.45;;
19191;SDS011;9728;48.194;16.346;2022-07-29T12:29:14;2.53;;;2.33;;
19191;SDS011;9728;48.194;16.346;2022-07-29T12:34:22;3.47;;;2.55;;
19191;SDS011;9728;48.194;16.346;2022-07-29T12:39:27;2.25;;;2.05;;
19191;SDS011;9728;48.194;16.346;2022-07-29T12:44:44;3.08;;;2.88;;
19191;SDS011;9728;48.194;16.346;2022-07-29T12:49:49;2.50;;;2.30;;
19191;SDS011;9728;48.194;16.346;2022-07-29T12:54:57;2.97;;;1.95;;
19191;SDS011;9728;48.194;16.346;2022-07-29T13:00:05;2.75;;;1.90;;
19191;SDS011;9728;48.194;16.346;2022-07-29T13:05:11;3.03;;;2.33;;
19191;SDS011;9728;48.194;16.346;2022-07-29T13:10:17;2.53;;;2.00;;
19191;SDS011;9728;48.194;16.346;2022-07-29T13:15:25;2.25;;;2.05;;
19191;SDS011;9728;48.194;16.346;2022-07-29T13:20:28;2.75;;;2.05;;
19191;SDS011;9728;48.194;16.346;2022-07-29T13:25:34;2.35;;;2.15;;
19191;SDS011;9728;48.194;16.346;2022-07-29T13:30:42;2.40;;;2.20;;
19191;SDS011;9728;48.194;16.346;2022-07-29T13:35:45;2.17;;;1.98;;
19191;SDS011;9728;48.194;16.346;2022-07-29T13:40:51;2.10;;;1.98;;
19191;SDS011;9728;48.194;16.346;2022-07-29T13:45:55;2.88;;;2.00;;
19191;SDS011;9728;48.194;16.346;2022-07-29T13:50:58;3.15;;;1.80;;
19191;SDS011;9728;48.194;16.346;2022-07-29T13:56:03;3.28;;;2.17;;
19191;SDS011;9728;48.194;16.346;2022-07-29T14:01:08;2.35;;;2.00;;
19191;SDS011;9728;48.194;16.346;2022-07-29T14:06:11;2.22;;;1.92;;
19191;SDS011;9728;48.194;16.346;2022-07-29T14:11:16;2.53;;;2.20;;
19191;SDS011;9728;48.194;16.346;2022-07-29T14:16:20;2.50;;;2.30;;
19191;SDS011;9728;48.194;16.346;2022-07-29T14:21:23;3.22;;;2.50;;
19191;SDS011;9728;48.194;16.346;2022-07-29T14:26:28;2.88;;;2.17;;
19191;SDS011;9728;48.194;16.346;2022-07-29T14:31:32;2.92;;;2.10;;
19191;SDS011;9728;48.194;16.346;2022-07-29T14:36:36;2.78;;;2.20;;
19191;SDS011;9728;48.194;16.346;2022-07-29T14:41:41;2.50;;;2.30;;
19191;SDS011;9728;48.194;16.346;2022-07-29T14:46:44;3.72;;;2.10;;
19191;SDS011;9728;48.194;16.346;2022-07-29T14:51:49;3.28;;;2.33;;
19191;SDS011;9728;48.194;16.346;2022-07-29T14:56:54;2.55;;;2.25;;
19191;SDS011;9728;48.194;16.346;2022-07-29T15:01:59;3.60;;;2.70;;
19191;SDS011;9728;48.194;16.346;2022-07-29T15:07:03;2.55;;;2.35;;
19191;SDS011;9728;48.194;16.346;2022-07-29T15:12:08;4.00;;;2.60;;
19191;SDS011;9728;48.194;16.346;2022-07-29T15:17:12;2.55;;;1.98;;
19191;SDS011;9728;48.194;16.346;2022-07-29T15:22:16;2.95;;;2.50;;
19191;SDS011;9728;48.194;16.346;2022-07-29T15:27:22;3.10;;;2.80;;
19191;SDS011;9728;48.194;16.346;2022-07-29T15:32:25;3.15;;;2.85;;
19191;SDS011;9728;48.194;16.346;2022-07-29T15:37:28;3.35;;;3.05;;
19191;SDS011;9728;48.194;16.346;2022-07-29T15:42:51;3.13;;;2.60;;
19191;SDS011;9728;48.194;16.346;2022-07-29T15:47:54;3.35;;;2.65;;
19191;SDS011;9728;48.194;16.346;2022-07-29T15:52:58;2.85;;;2.50;;
19191;SDS011;9728;48.194;16.346;2022-07-29T15:58:02;2.88;;;2.67;;
19191;SDS011;9728;48.194;16.346;2022-07-29T16:03:06;3.70;;;2.97;;
19191;SDS011;9728;48.194;16.346;2022-07-29T16:08:09;3.85;;;2.92;;
19191;SDS011;9728;48.194;16.346;2022-07-29T16:13:14;4.97;;;3.83;;
19191;SDS011;9728;48.194;16.346;2022-07-29T16:18:19;4.43;;;4.03;;
19191;SDS011;9728;48.194;16.346;2022-07-29T16:23:30;3.60;;;3.30;;
19191;SDS011;9728;48.194;16.346;2022-07-29T16:28:36;3.08;;;2.78;;
19191;SDS011;9728;48.194;16.346;2022-07-29T16:33:40;2.75;;;2.47;;
19191;SDS011;9728;48.194;16.346;2022-07-29T16:38:56;3.38;;;2.90;;
19191;SDS011;9728;48.194;16.346;2022-07-29T16:44:01;2.83;;;2.63;;
19191;SDS011;9728;48.194;16.346;2022-07-29T16:49:05;3.85;;;2.90;;
19191;SDS011;9728;48.194;16.346;2022-07-29T16:54:08;2.90;;;2.65;;
19191;SDS011;9728;48.194;16.346;2022-07-29T16:59:13;3.08;;;2.78;;
19191;SDS011;9728;48.194;16.346;2022-07-29T17:04:17;3.00;;;2.67;;
19191;SDS011;9728;48.194;16.346;2022-07-29T17:09:23;3.22;;;2.63;;
19191;SDS011;9728;48.194;16.346;2022-07-29T17:14:28;3.15;;;2.60;;
19191;SDS011;9728;48.194;16.346;2022-07-29T17:19:33;2.97;;;2.67;;
19191;SDS011;9728;48.194;16.346;2022-07-29T17:24:37;3.03;;;2.72;;
19191;SDS011;9728;48.194;16.346;2022-07-29T17:29:43;3.67;;;2.65;;
19191;SDS011;9728;48.194;16.346;2022-07-29T17:34:47;2.65;;;2.45;;
19191;SDS011;9728;48.194;16.346;2022-07-29T17:39:50;3.65;;;2.60;;
19191;SDS011;9728;48.194;16.346;2022-07-29T17:45:01;4.05;;;2.90;;
19191;SDS011;9728;48.194;16.346;2022-07-29T17:50:05;2.70;;;2.40;;
19191;SDS011;9728;48.194;16.346;2022-07-29T17:55:09;3.72;;;2.70;;
19191;SDS011;9728;48.194;16.346;2022-07-29T18:00:16;2.95;;;2.70;;
19191;SDS011;9728;48.194;16.346;2022-07-29T18:05:19;2.90;;;2.58;;
19191;SDS011;9728;48.194;16.346;2022-07-29T18:10:23;3.30;;;2.90;;
19191;SDS011;9728;48.194;16.346;2022-07-29T18:15:28;2.70;;;2.38;;
19191;SDS011;9728;48.194;16.346;2022-07-29T18:20:31;3.03;;;2.72;;
19191;SDS011;9728;48.194;16.346;2022-07-29T18:25:35;2.67;;;2.47;;
19191;SDS011;9728;48.194;16.346;2022-07-29T18:30:41;3.28;;;2.92;;
19191;SDS011;9728;48.194;16.346;2022-07-29T18:35:46;2.95;;;2.65;;
19191;SDS011;9728;48.194;16.346;2022-07-29T18:40:51;2.90;;;2.60;;
19191;SDS011;9728;48.194;16.346;2022-07-29T18:45:56;3.70;;;3.28;;
19191;SDS011;9728;48.194;16.346;2022-07-29T18:50:59;4.05;;;3.65;;
19191;SDS011;9728;48.194;16.346;2022-07-29T18:56:09;3.28;;;2.97;;
19191;SDS011;9728;48.194;16.346;2022-07-29T19:01:14;4.00;;;3.60;;
19191;SDS011;9728;48.194;16.346;2022-07-29T19:06:17;3.38;;;2.88;;
19191;SDS011;9728;48.194;16.346;2022-07-29T19:11:26;5.00;;;3.25;;
19191;SDS011;9728;48.194;16.346;2022-07-29T19:16:30;3.38;;;2.90;;
19191;SDS011;9728;48.194;16.346;2022-07-29T19:21:34;3.33;;;2.80;;
19191;SDS011;9728;48.194;16.346;2022-07-29T19:26:38;3.42;;;3.00;;
19191;SDS011;9728;48.194;16.346;2022-07-29T19:31:48;3.85;;;3.20;;
19191;SDS011;9728;48.194;16.346;2022-07-29T19:36:51;4.00;;;3.42;;
19191;SDS011;9728;48.194;16.346;2022-07-29T19:41:55;3.90;;;3.30;;
19191;SDS011;9728;48.194;16.346;2022-07-29T19:47:05;5.90;;;5.25;;
19191;SDS011;9728;48.194;16.346;2022-07-29T19:52:08;3.50;;;3.20;;
19191;SDS011;9728;48.194;16.346;2022-07-29T19:57:11;3.30;;;3.00;;
19191;SDS011;9728;48.194;16.346;2022-07-29T20:02:16;3.65;;;3.25;;
19191;SDS011;9728;48.194;16.346;2022-07-29T20:07:20;4.10;;;3.60;;
19191;SDS011;9728;48.194;16.346;2022-07-29T20:12:23;4.07;;;3.20;;
19191;SDS011;9728;48.194;16.346;2022-07-29T20:17:28;3.92;;;3.13;;
19191;SDS011;9728;48.194;16.346;2022-07-29T20:22:31;3.50;;;3.10;;
19191;SDS011;9728;48.194;16.346;2022-07-29T20:27:35;5.07;;;3.65;;
19191;SDS011;9728;48.194;16.346;2022-07-29T20:32:42;3.80;;;3.17;;
19191;SDS011;9728;48.194;16.346;2022-07-29T20:37:45;3.30;;;3.00;;
19191;SDS011;9728;48.194;16.346;2022-07-29T20:42:56;3.05;;;2.72;;
19191;SDS011;9728;48.194;16.346;2022-07-29T20:48:01;3.05;;;2.78;;
19191;SDS011;9728;48.194;16.346;2022-07-29T20:53:05;3.97;;;2.85;;
19191;SDS011;9728;48.194;16.346;2022-07-29T20:58:08;3.88;;;3.22;;
19191;SDS011;9728;48.194;16.346;2022-07-29T21:03:13;3.70;;;3.20;;
19191;SDS011;9728;48.194;16.346;2022-07-29T21:08:18;3.45;;;2.80;;
19191;SDS011;9728;48.194;16.346;2022-07-29T21:13:22;3.78;;;2.92;;
19191;SDS011;9728;48.194;16.346;2022-07-29T21:18:27;3.97;;;2.92;;
19191;SDS011;9728;48.194;16.346;2022-07-29T21:23:33;3.08;;;2.78;;
19191;SDS011;9728;48.194;16.346;2022-07-29T21:28:36;3.05;;;2.78;;
19191;SDS011;9728;48.194;16.346;2022-07-29T21:33:43;3.40;;;3.03;;
19191;SDS011;9728;48.194;16.346;2022-07-29T21:38:47;2.80;;;2.50;;
19191;SDS011;9728;48.194;16.346;2022-07-29T21:43:50;3.33;;;2.83;;
19191;SDS011;9728;48.194;16.346;2022-07-29T21:49:00;2.80;;;2.58;;
19191;SDS011;9728;48.194;16.346;2022-07-29T21:54:03;3.97;;;2.90;;
19191;SDS011;9728;48.194;16.346;2022-07-29T21:59:08;3.03;;;2.72;;
19191;SDS011;9728;48.194;16.346;2022-07-29T22:04:14;3.63;;;2.80;;
19191;SDS011;9728;48.194;16.346;2022-07-29T22:09:18;2.90;;;2.70;;
19191;SDS011;9728;48.194;16.346;2022-07-29T22:14:21;2.67;;;2.47;;
19191;SDS011;9728;48.194;16.346;2022-07-29T22:19:27;3.38;;;2.40;;
19191;SDS011;9728;48.194;16.346;2022-07-29T22:24:31;2.85;;;2.65;;
19191;SDS011;9728;48.194;16.346;2022-07-29T22:29:34;2.67;;;2.45;;
19191;SDS011;9728;48.194;16.346;2022-07-29T22:34:39;2.58;;;2.38;;
19191;SDS011;9728;48.194;16.346;2022-07-29T22:39:43;2.80;;;2.55;;
19191;SDS011;9728;48.194;16.346;2022-07-29T22:44:46;2.97;;;2.70;;
19191;SDS011;9728;48.194;16.346;2022-07-29T22:49:51;2.55;;;2.35;;
19191;SDS011;9728;48.194;16.346;2022-07-29T22:54:54;2.65;;;2.42;;
19191;SDS011;9728;48.194;16.346;2022-07-29T22:59:58;2.92;;;2.47;;
19191;SDS011;9728;48.194;16.346;2022-07-29T23:05:05;2.45;;;2.25;;
19191;SDS011;9728;48.194;16.346;2022-07-29T23:10:10;2.65;;;2.17;;
19191;SDS011;9728;48.194;16.346;2022-07-29T23:15:14;2.88;;;2.67;;
19191;SDS011;9728;48.194;16.346;2022-07-29T23:20:20;2.40;;;2.20;;
19191;SDS011;9728;48.194;16.346;2022-07-29T23:25:23;3.28;;;2.33;;
19191;SDS011;9728;48.194;16.346;2022-07-29T23:30:26;2.65;;;2.10;;
19191;SDS011;9728;48.194;16.346;2022-07-29T23:35:31;2.50;;;2.30;;
19191;SDS011;9728;48.194;16.346;2022-07-29T23:40:35;2.55;;;2.33;;
19191;SDS011;9728;48.194;16.346;2022-07-29T23:45:38;2.20;;;2.00;;
19191;SDS011;9728;48.194;16.346;2022-07-29T23:50:47;2.30;;;2.10;;
19191;SDS011;9728;48.194;16.346;2022-07-29T23:55:50;2.15;;;1.95;;
